John C. Munro Hamilton International Airport
CYHM : now visible

Airfield :











YOU CAN JOIN US ON...

 
LOGIN :

Register | Disclaimer

   EN    FR    IT 

 









Legend :    VFR   Marginal VFR   IFR   Intensive IFR   Very Intensive IFR
Visi :
Ceiling :
>= 8 km
>= 3000ft
5 to 8 km
1000 to 3000 ft
1500m to 5 km
500 to 1000 ft
800 to 1500m
200 to 500 ft
< 800m
< 200 ft
Symbols :   Thunderstorms  Fog  Heavy snow  Heavy precipitations  Wind > 20 kt






- Airport Elevation : 780 ft
- IATA code : YHM


CYHM - John C. Munro Hamilton International

CURRENT METAR :
  • 230800Z 20005KT 15SM BKN140 15/13 A2986 RMK AC6 VIA CYXU SLP113 DENSITY ALT 1100FT

EXPIRED METARs :
  • 230700Z 27004KT 15SM BKN110 16/13 RMK AC6 VIA CYXU DENSITY ALT MISG
  • 230600Z 26005KT 15SM FEW054 BKN100 BKN230 16/14 A2986 RMK SC1AC4CI2 VIA CYXU SLP110 DENSITY ALT 1200FT
  • 230500Z 26007KT 15SM -RA FEW050 BKN100 OVC140 17/15 A2987 RMK SC1AC5AS3 SC TR VIA CYXU SLP115 DENSITY ALT 1300FT
  • 230429Z 28013G20KT 15SM -RA FEW060 BKN070 OVC100 19/14 A2986 RMK SC1AC5AS3 SC TR VIA CYXU SLP109 DENSITY ALT 1500FT

TAF TAF CYHM
Valid from the 23 at 06:00 until the 24 at 06:00 UTC


230540Z 2306/2406 26010G20KT P6SM BKN100
FM230900 27010KT P6SM FEW070
BECMG 2310/2312 21010KT
FM231700 24010G20KT P6SM SCT070
BECMG 2400/2402 27007KT RMK NXT FCST BY 231200Z
CZYZ FIR / North America



MET'MAP, your aeronautical weather chart ! - Copyright ORBIFLY December 2007 - Disclaimer

ORBIFLY MET'MAP TEAM :

Programming & Development : Alexandra Zaïnal
Original concept : Baudouin d'Aumeries
Technical & hardware support : Manuel Goepfert
Assistance : Marc-Olivier Méhu




SOURCES & CREDITS :

   NOAA       Earth
Advisory